Aérodrome :
LOGIN :

S'inscrire | Disclaimer

   EN    FR    IT 

 










Légende :    VFR   VFR Marginal   IFR   IFR Intensif   IFR Très Intensif
Visi : 
Plafond : 
>= 8 km
>= 3000ft
5 à 8 km
1000 à 3000 ft
1500m à 5 km
500 à 1000 ft
800 à 1500m
200 à 500 ft
< 800m
< 200 ft
Symboles :   Orages  Brouillard  Fortes neiges  Fortes précipitations  Vent > 20 kt
SIGMETs :   Divers  Orages  Givrage  Turbulence  Onde Orograph.  Cendres Volcan.






- Altitude de l'aérodrome : 79 ft
- Code IATA : SPU


LDSP - Split

DERNIER METAR :
  • 240600Z VRB01KT CAVOK 07/06 Q1020 NOSIG

METARs EXPIRÉS :
  • 240530Z 34003KT CAVOK 07/05 Q1020 NOSIG
  • 240500Z VRB02KT CAVOK 07/05 Q1020 NOSIG
  • 240430Z AUTO 31003KT 270V330 CAVOK 08/06 Q1020 NOSIG
  • 240400Z AUTO 33003KT CAVOK 07/05 Q1020 NOSIG
  • 240330Z AUTO 33005KT CAVOK 09/06 Q1020 NOSIG

TAF TAF LDSP
Valide du 24 à 06h jusqu'au 25 à 06h UTC


240525Z 2406/2506 VRB02KT CAVOK TX16/2413Z TN07/2505Z
PROB40
TEMPO 2411/2416 23008KT



MET'MAP, la Météo Aéronautique d'un coup d'oeil ! - Copyright ORBIFLY Décembre 2007 - Disclaimer

ORBIFLY MET'MAP TEAM :

Programmation & Développement : Alexandra Zaïnal
Sur une idée originale de : Baudouin d'Aumeries
Assistance à la programmation : Marc-Olivier Méhu
Soutien technique & logistique : Manuel Goepfert

Contact : metmap@orbifly.com




SOURCES & CREDITS :

   NOAA